This is the latest recevied weather packets stored in our database for station/object GW1546. If no packets are shown the sender has not sent any weather packets the latest 10 day(s).
| Time | Temp. | Humidity | Pressure | Rain* | Wind** | Luminosity | Snow |
|---|---|---|---|---|---|---|---|
| 1777717127 | 2.78° C | 99% | 989.1 hPa | 0 mm | - | - | - |
| 1777716391 | 2.78° C | 98% | 989.1 hPa | 0 mm | - | - | - |
| 1777705944 | 4.44° C | 92% | 988.8 hPa | 0 mm | - | - | - |
| 1777701647 | 6.11° C | 83% | 989.1 hPa | 0 mm | - | - | - |
| 1777701288 | 6.67° C | 82% | 988.8 hPa | 0 mm | - | - | - |
| 1777699821 | 6.67° C | 79% | 988.8 hPa | 0 mm | - | - | - |
| 1777698388 | 7.78° C | 75% | 989.1 hPa | 0 mm | - | - | - |
| 1777695875 | 9.44° C | 70% | 988.8 hPa | 0 mm | - | - | - |
| 1777691175 | 11.11° C | 66% | 988.8 hPa | 0 mm | - | - | - |
| 1777681112 | 13.33° C | 61% | 986.1 hPa | 0 mm | - | - | - |
| 1777680766 | 13.33° C | 61% | 986.1 hPa | 0 mm | - | - | - |
| 1777679693 | 13.89° C | 60% | 985.7 hPa | 0 mm | - | - | - |
| 1777678973 | 13.89° C | 64% | 985.4 hPa | 0 mm | - | - | - |
| 1777674654 | 15° C | 61% | 984.7 hPa | 0 mm | - | - | - |
| 1777671758 | 16.67° C | 53% | 983.7 hPa | 0 mm | - | - | - |
| 1777661321 | 20.56° C | 34% | 983.4 hPa | 0 mm | - | - | - |
| 1777660943 | 20.56° C | 32% | 983.7 hPa | 0 mm | - | - | - |
| 1777658813 | 20° C | 31% | 983.7 hPa | 0 mm | - | - | - |
| 1777653757 | 18.33° C | 32% | 984.4 hPa | 0 mm | - | - | - |
| 1777646530 | 12.22° C | 70% | 986.4 hPa | 0 mm | - | - | - |
| 1777645821 | 11.67° C | 73% | 986.4 hPa | 0 mm | - | - | - |
| 1777645450 | 11.11° C | 77% | 986.4 hPa | 0 mm | - | - | - |
| 1777643291 | 8.89° C | 84% | 987.1 hPa | 0 mm | - | - | - |
| 1777639339 | 5° C | 96% | 987.4 hPa | 0 mm | - | - | - |
| 1777638989 | 4.44° C | 96% | 987.8 hPa | 0 mm | - | - | - |
* Rain since midnight (hover to see other rain measurements)
** Current wind speed in m/s (hover to see current wind gust speed)